sensor_id;sensor_type;location;lat;lon;timestamp;P1;durP1;ratioP1;P2;durP2;ratioP2
70008;SDS011;59542;37.950;-122.338;2022-07-29T00:01:00;5.90;;;1.33;;
70008;SDS011;59542;37.950;-122.338;2022-07-29T00:03:26;4.03;;;1.25;;
70008;SDS011;59542;37.950;-122.338;2022-07-29T00:05:53;4.72;;;1.48;;
70008;SDS011;59542;37.950;-122.338;2022-07-29T00:08:19;5.13;;;1.30;;
70008;SDS011;59542;37.950;-122.338;2022-07-29T00:10:45;7.68;;;1.50;;
70008;SDS011;59542;37.950;-122.338;2022-07-29T00:13:12;4.88;;;1.50;;
70008;SDS011;59542;37.950;-122.338;2022-07-29T00:15:38;5.43;;;2.00;;
70008;SDS011;59542;37.950;-122.338;2022-07-29T00:18:04;5.78;;;1.38;;
70008;SDS011;59542;37.950;-122.338;2022-07-29T00:20:31;5.70;;;1.65;;
70008;SDS011;59542;37.950;-122.338;2022-07-29T00:22:57;6.57;;;1.65;;
70008;SDS011;59542;37.950;-122.338;2022-07-29T00:25:23;7.10;;;1.70;;
70008;SDS011;59542;37.950;-122.338;2022-07-29T00:27:50;5.95;;;2.30;;
70008;SDS011;59542;37.950;-122.338;2022-07-29T00:30:17;3.85;;;1.35;;
70008;SDS011;59542;37.950;-122.338;2022-07-29T00:32:43;5.32;;;1.63;;
70008;SDS011;59542;37.950;-122.338;2022-07-29T00:35:09;4.72;;;1.10;;
70008;SDS011;59542;37.950;-122.338;2022-07-29T00:37:54;3.65;;;1.42;;
70008;SDS011;59542;37.950;-122.338;2022-07-29T00:40:20;4.50;;;1.30;;
70008;SDS011;59542;37.950;-122.338;2022-07-29T00:42:47;3.53;;;1.42;;
70008;SDS011;59542;37.950;-122.338;2022-07-29T00:45:16;4.20;;;1.73;;
70008;SDS011;59542;37.950;-122.338;2022-07-29T00:47:43;6.90;;;1.75;;
70008;SDS011;59542;37.950;-122.338;2022-07-29T00:50:11;7.72;;;2.22;;
70008;SDS011;59542;37.950;-122.338;2022-07-29T00:52:40;6.38;;;1.38;;
70008;SDS011;59542;37.950;-122.338;2022-07-29T00:55:08;6.47;;;1.80;;
70008;SDS011;59542;37.950;-122.338;2022-07-29T00:57:36;6.05;;;1.65;;
70008;SDS011;59542;37.950;-122.338;2022-07-29T01:00:04;5.88;;;1.73;;
70008;SDS011;59542;37.950;-122.338;2022-07-29T01:02:32;5.50;;;1.75;;
70008;SDS011;59542;37.950;-122.338;2022-07-29T01:04:58;4.32;;;1.63;;
70008;SDS011;59542;37.950;-122.338;2022-07-29T01:07:25;6.72;;;2.05;;
70008;SDS011;59542;37.950;-122.338;2022-07-29T01:09:53;5.95;;;1.85;;
70008;SDS011;59542;37.950;-122.338;2022-07-29T01:12:22;4.50;;;1.42;;
70008;SDS011;59542;37.950;-122.338;2022-07-29T01:14:50;4.65;;;2.08;;
70008;SDS011;59542;37.950;-122.338;2022-07-29T01:20:24;6.18;;;1.95;;
70008;SDS011;59542;37.950;-122.338;2022-07-29T01:29:03;4.10;;;1.80;;
70008;SDS011;59542;37.950;-122.338;2022-07-29T01:31:54;6.95;;;1.85;;
70008;SDS011;59542;37.950;-122.338;2022-07-29T01:34:27;7.22;;;1.75;;
70008;SDS011;59542;37.950;-122.338;2022-07-29T01:37:04;5.40;;;1.85;;
70008;SDS011;59542;37.950;-122.338;2022-07-29T01:39:50;7.30;;;1.75;;
70008;SDS011;59542;37.950;-122.338;2022-07-29T01:42:34;4.60;;;1.88;;
70008;SDS011;59542;37.950;-122.338;2022-07-29T01:45:20;3.63;;;1.50;;
70008;SDS011;59542;37.950;-122.338;2022-07-29T01:50:49;6.30;;;1.58;;
70008;SDS011;59542;37.950;-122.338;2022-07-29T01:54:01;4.47;;;1.70;;
70008;SDS011;59542;37.950;-122.338;2022-07-29T01:56:12;4.95;;;1.38;;
70008;SDS011;59542;37.950;-122.338;2022-07-29T01:58:41;5.18;;;1.60;;
70008;SDS011;59542;37.950;-122.338;2022-07-29T02:01:11;4.25;;;1.38;;
70008;SDS011;59542;37.950;-122.338;2022-07-29T02:03:39;3.97;;;1.42;;
70008;SDS011;59542;37.950;-122.338;2022-07-29T02:06:09;5.55;;;1.60;;
70008;SDS011;59542;37.950;-122.338;2022-07-29T02:08:36;6.22;;;1.80;;
70008;SDS011;59542;37.950;-122.338;2022-07-29T02:11:04;4.57;;;1.90;;
70008;SDS011;59542;37.950;-122.338;2022-07-29T02:13:32;5.47;;;1.80;;
70008;SDS011;59542;37.950;-122.338;2022-07-29T02:16:01;4.60;;;1.67;;
70008;SDS011;59542;37.950;-122.338;2022-07-29T02:18:31;3.08;;;1.20;;
70008;SDS011;59542;37.950;-122.338;2022-07-29T02:20:59;5.20;;;2.00;;
70008;SDS011;59542;37.950;-122.338;2022-07-29T02:23:26;8.38;;;1.77;;
70008;SDS011;59542;37.950;-122.338;2022-07-29T02:25:53;3.83;;;1.63;;
70008;SDS011;59542;37.950;-122.338;2022-07-29T02:28:23;3.20;;;1.67;;
70008;SDS011;59542;37.950;-122.338;2022-07-29T02:30:52;4.10;;;1.38;;
70008;SDS011;59542;37.950;-122.338;2022-07-29T02:33:21;11.65;;;2.58;;
70008;SDS011;59542;37.950;-122.338;2022-07-29T02:35:49;5.05;;;1.60;;
70008;SDS011;59542;37.950;-122.338;2022-07-29T02:38:16;7.93;;;2.10;;
70008;SDS011;59542;37.950;-122.338;2022-07-29T02:41:03;4.60;;;1.63;;
70008;SDS011;59542;37.950;-122.338;2022-07-29T02:43:33;5.50;;;1.45;;
70008;SDS011;59542;37.950;-122.338;2022-07-29T02:46:02;6.05;;;1.42;;
70008;SDS011;59542;37.950;-122.338;2022-07-29T02:48:37;4.78;;;1.60;;
70008;SDS011;59542;37.950;-122.338;2022-07-29T02:51:08;4.38;;;1.30;;
70008;SDS011;59542;37.950;-122.338;2022-07-29T02:53:44;2.75;;;1.15;;
70008;SDS011;59542;37.950;-122.338;2022-07-29T02:56:16;5.03;;;1.48;;
70008;SDS011;59542;37.950;-122.338;2022-07-29T02:58:57;6.25;;;1.52;;
70008;SDS011;59542;37.950;-122.338;2022-07-29T03:01:27;4.90;;;1.27;;
70008;SDS011;59542;37.950;-122.338;2022-07-29T03:03:57;7.05;;;1.40;;
70008;SDS011;59542;37.950;-122.338;2022-07-29T03:06:27;3.10;;;1.38;;
70008;SDS011;59542;37.950;-122.338;2022-07-29T03:08:54;4.32;;;1.58;;
70008;SDS011;59542;37.950;-122.338;2022-07-29T03:11:23;5.45;;;1.63;;
70008;SDS011;59542;37.950;-122.338;2022-07-29T03:13:50;4.15;;;1.23;;
70008;SDS011;59542;37.950;-122.338;2022-07-29T03:16:17;6.10;;;1.30;;
70008;SDS011;59542;37.950;-122.338;2022-07-29T03:18:45;3.63;;;1.35;;
70008;SDS011;59542;37.950;-122.338;2022-07-29T03:21:12;4.53;;;1.48;;
70008;SDS011;59542;37.950;-122.338;2022-07-29T03:23:42;4.45;;;1.42;;
70008;SDS011;59542;37.950;-122.338;2022-07-29T03:26:10;3.95;;;1.17;;
70008;SDS011;59542;37.950;-122.338;2022-07-29T03:28:37;3.35;;;1.35;;
70008;SDS011;59542;37.950;-122.338;2022-07-29T03:31:03;3.55;;;0.90;;
70008;SDS011;59542;37.950;-122.338;2022-07-29T03:33:29;2.65;;;1.10;;
70008;SDS011;59542;37.950;-122.338;2022-07-29T03:35:56;3.97;;;1.40;;
70008;SDS011;59542;37.950;-122.338;2022-07-29T03:38:23;2.97;;;1.05;;
70008;SDS011;59542;37.950;-122.338;2022-07-29T03:40:56;4.97;;;1.00;;
70008;SDS011;59542;37.950;-122.338;2022-07-29T03:43:28;3.28;;;1.30;;
70008;SDS011;59542;37.950;-122.338;2022-07-29T03:45:58;2.58;;;1.33;;
70008;SDS011;59542;37.950;-122.338;2022-07-29T03:48:26;3.25;;;1.20;;
70008;SDS011;59542;37.950;-122.338;2022-07-29T03:50:54;4.47;;;1.00;;
70008;SDS011;59542;37.950;-122.338;2022-07-29T03:53:21;3.40;;;1.00;;
70008;SDS011;59542;37.950;-122.338;2022-07-29T03:55:49;2.90;;;0.80;;
70008;SDS011;59542;37.950;-122.338;2022-07-29T03:58:19;3.30;;;0.90;;
70008;SDS011;59542;37.950;-122.338;2022-07-29T04:00:46;1.73;;;0.80;;
70008;SDS011;59542;37.950;-122.338;2022-07-29T04:03:13;2.72;;;1.00;;
70008;SDS011;59542;37.950;-122.338;2022-07-29T04:05:39;4.93;;;0.70;;
70008;SDS011;59542;37.950;-122.338;2022-07-29T04:08:06;1.63;;;0.60;;
70008;SDS011;59542;37.950;-122.338;2022-07-29T04:10:32;2.45;;;0.85;;
70008;SDS011;59542;37.950;-122.338;2022-07-29T04:12:59;8.52;;;1.33;;
70008;SDS011;59542;37.950;-122.338;2022-07-29T04:15:25;3.28;;;0.77;;
70008;SDS011;59542;37.950;-122.338;2022-07-29T04:17:54;1.70;;;0.70;;
70008;SDS011;59542;37.950;-122.338;2022-07-29T04:20:20;2.65;;;0.80;;
70008;SDS011;59542;37.950;-122.338;2022-07-29T04:22:46;1.10;;;0.55;;
70008;SDS011;59542;37.950;-122.338;2022-07-29T04:25:13;3.35;;;0.80;;
70008;SDS011;59542;37.950;-122.338;2022-07-29T04:27:39;1.23;;;0.52;;
70008;SDS011;59542;37.950;-122.338;2022-07-29T04:30:25;2.22;;;0.93;;
70008;SDS011;59542;37.950;-122.338;2022-07-29T04:32:51;2.97;;;0.75;;
70008;SDS011;59542;37.950;-122.338;2022-07-29T04:35:21;1.77;;;0.40;;
70008;SDS011;59542;37.950;-122.338;2022-07-29T04:37:47;1.42;;;0.50;;
70008;SDS011;59542;37.950;-122.338;2022-07-29T04:40:13;2.97;;;0.75;;
70008;SDS011;59542;37.950;-122.338;2022-07-29T04:42:40;1.40;;;0.90;;
70008;SDS011;59542;37.950;-122.338;2022-07-29T04:45:06;2.97;;;1.08;;
70008;SDS011;59542;37.950;-122.338;2022-07-29T04:47:32;1.95;;;0.93;;
70008;SDS011;59542;37.950;-122.338;2022-07-29T04:49:59;0.85;;;0.40;;
70008;SDS011;59542;37.950;-122.338;2022-07-29T04:52:26;1.95;;;1.00;;
70008;SDS011;59542;37.950;-122.338;2022-07-29T04:54:52;2.50;;;0.75;;
70008;SDS011;59542;37.950;-122.338;2022-07-29T04:57:18;1.48;;;0.63;;
70008;SDS011;59542;37.950;-122.338;2022-07-29T04:59:44;1.70;;;0.60;;
70008;SDS011;59542;37.950;-122.338;2022-07-29T05:02:10;0.77;;;0.47;;
70008;SDS011;59542;37.950;-122.338;2022-07-29T05:04:36;3.40;;;0.90;;
70008;SDS011;59542;37.950;-122.338;2022-07-29T05:07:03;0.90;;;0.60;;
70008;SDS011;59542;37.950;-122.338;2022-07-29T05:09:29;2.20;;;0.60;;
70008;SDS011;59542;37.950;-122.338;2022-07-29T05:11:57;1.00;;;0.40;;
70008;SDS011;59542;37.950;-122.338;2022-07-29T05:14:23;3.13;;;0.40;;
70008;SDS011;59542;37.950;-122.338;2022-07-29T05:16:49;1.42;;;0.47;;
70008;SDS011;59542;37.950;-122.338;2022-07-29T05:19:16;1.40;;;0.50;;
70008;SDS011;59542;37.950;-122.338;2022-07-29T05:21:44;1.63;;;0.50;;
70008;SDS011;59542;37.950;-122.338;2022-07-29T05:24:10;2.15;;;0.40;;
70008;SDS011;59542;37.950;-122.338;2022-07-29T05:26:36;1.58;;;0.60;;
70008;SDS011;59542;37.950;-122.338;2022-07-29T05:29:02;2.17;;;0.75;;
70008;SDS011;59542;37.950;-122.338;2022-07-29T05:31:29;3.97;;;0.80;;
70008;SDS011;59542;37.950;-122.338;2022-07-29T05:33:55;3.13;;;0.50;;
70008;SDS011;59542;37.950;-122.338;2022-07-29T05:36:21;2.03;;;0.70;;
70008;SDS011;59542;37.950;-122.338;2022-07-29T05:38:47;3.60;;;0.80;;
70008;SDS011;59542;37.950;-122.338;2022-07-29T05:41:13;2.30;;;0.65;;
70008;SDS011;59542;37.950;-122.338;2022-07-29T05:43:40;1.30;;;0.60;;
70008;SDS011;59542;37.950;-122.338;2022-07-29T05:46:06;2.25;;;0.80;;
70008;SDS011;59542;37.950;-122.338;2022-07-29T05:48:32;3.60;;;0.80;;
70008;SDS011;59542;37.950;-122.338;2022-07-29T05:50:58;2.78;;;1.00;;
70008;SDS011;59542;37.950;-122.338;2022-07-29T05:53:24;1.45;;;0.60;;
70008;SDS011;59542;37.950;-122.338;2022-07-29T05:55:51;1.55;;;0.93;;
70008;SDS011;59542;37.950;-122.338;2022-07-29T05:58:17;2.50;;;0.70;;
70008;SDS011;59542;37.950;-122.338;2022-07-29T06:00:43;1.88;;;0.90;;
70008;SDS011;59542;37.950;-122.338;2022-07-29T06:03:10;1.92;;;0.95;;
70008;SDS011;59542;37.950;-122.338;2022-07-29T06:05:36;4.90;;;1.33;;
70008;SDS011;59542;37.950;-122.338;2022-07-29T06:08:03;3.58;;;1.10;;
70008;SDS011;59542;37.950;-122.338;2022-07-29T06:10:34;5.30;;;1.63;;
70008;SDS011;59542;37.950;-122.338;2022-07-29T06:13:01;3.33;;;1.10;;
70008;SDS011;59542;37.950;-122.338;2022-07-29T06:15:27;3.08;;;0.90;;
70008;SDS011;59542;37.950;-122.338;2022-07-29T06:17:54;2.53;;;1.08;;
70008;SDS011;59542;37.950;-122.338;2022-07-29T06:20:20;2.85;;;1.27;;
70008;SDS011;59542;37.950;-122.338;2022-07-29T06:22:47;4.32;;;1.20;;
70008;SDS011;59542;37.950;-122.338;2022-07-29T06:25:13;3.45;;;1.20;;
70008;SDS011;59542;37.950;-122.338;2022-07-29T06:27:39;4.05;;;1.33;;
70008;SDS011;59542;37.950;-122.338;2022-07-29T06:30:05;5.50;;;1.55;;
70008;SDS011;59542;37.950;-122.338;2022-07-29T06:32:32;4.78;;;1.50;;
70008;SDS011;59542;37.950;-122.338;2022-07-29T06:34:59;3.92;;;1.48;;
70008;SDS011;59542;37.950;-122.338;2022-07-29T06:37:25;7.30;;;1.70;;
70008;SDS011;59542;37.950;-122.338;2022-07-29T06:39:51;3.40;;;1.10;;
70008;SDS011;59542;37.950;-122.338;2022-07-29T06:42:37;4.90;;;2.05;;
70008;SDS011;59542;37.950;-122.338;2022-07-29T06:45:08;2.40;;;0.95;;
70008;SDS011;59542;37.950;-122.338;2022-07-29T06:47:36;3.10;;;0.93;;
70008;SDS011;59542;37.950;-122.338;2022-07-29T06:50:03;2.13;;;0.93;;
70008;SDS011;59542;37.950;-122.338;2022-07-29T06:52:30;2.60;;;0.70;;
70008;SDS011;59542;37.950;-122.338;2022-07-29T06:54:56;3.28;;;0.93;;
70008;SDS011;59542;37.950;-122.338;2022-07-29T06:57:22;4.18;;;0.98;;
70008;SDS011;59542;37.950;-122.338;2022-07-29T06:59:48;1.85;;;0.68;;
70008;SDS011;59542;37.950;-122.338;2022-07-29T07:02:15;6.13;;;1.45;;
70008;SDS011;59542;37.950;-122.338;2022-07-29T07:04:41;2.30;;;0.73;;
70008;SDS011;59542;37.950;-122.338;2022-07-29T07:07:07;2.88;;;0.77;;
70008;SDS011;59542;37.950;-122.338;2022-07-29T07:09:33;1.75;;;1.08;;
70008;SDS011;59542;37.950;-122.338;2022-07-29T07:11:59;2.13;;;0.60;;
70008;SDS011;59542;37.950;-122.338;2022-07-29T07:14:25;2.50;;;0.60;;
70008;SDS011;59542;37.950;-122.338;2022-07-29T07:16:53;1.20;;;0.57;;
70008;SDS011;59542;37.950;-122.338;2022-07-29T07:19:19;1.70;;;0.65;;
70008;SDS011;59542;37.950;-122.338;2022-07-29T07:21:45;2.08;;;0.60;;
70008;SDS011;59542;37.950;-122.338;2022-07-29T07:24:12;1.08;;;0.60;;
70008;SDS011;59542;37.950;-122.338;2022-07-29T07:26:38;1.45;;;0.60;;
70008;SDS011;59542;37.950;-122.338;2022-07-29T07:29:05;2.22;;;0.60;;
70008;SDS011;59542;37.950;-122.338;2022-07-29T07:31:31;1.15;;;0.57;;
70008;SDS011;59542;37.950;-122.338;2022-07-29T07:33:57;1.85;;;0.68;;
70008;SDS011;59542;37.950;-122.338;2022-07-29T07:36:24;1.00;;;0.50;;
70008;SDS011;59542;37.950;-122.338;2022-07-29T07:38:50;1.45;;;0.35;;
70008;SDS011;59542;37.950;-122.338;2022-07-29T07:41:16;1.50;;;0.60;;
70008;SDS011;59542;37.950;-122.338;2022-07-29T07:43:42;1.83;;;0.52;;
70008;SDS011;59542;37.950;-122.338;2022-07-29T07:46:08;0.85;;;0.40;;
70008;SDS011;59542;37.950;-122.338;2022-07-29T07:48:35;2.60;;;0.70;;
70008;SDS011;59542;37.950;-122.338;2022-07-29T07:51:01;1.27;;;0.50;;
70008;SDS011;59542;37.950;-122.338;2022-07-29T07:53:27;1.48;;;0.40;;
70008;SDS011;59542;37.950;-122.338;2022-07-29T07:55:54;1.92;;;0.63;;
70008;SDS011;59542;37.950;-122.338;2022-07-29T07:58:21;2.33;;;0.38;;
70008;SDS011;59542;37.950;-122.338;2022-07-29T08:00:47;2.72;;;0.50;;
70008;SDS011;59542;37.950;-122.338;2022-07-29T08:03:13;1.80;;;0.70;;
70008;SDS011;59542;37.950;-122.338;2022-07-29T08:05:40;0.60;;;0.40;;
70008;SDS011;59542;37.950;-122.338;2022-07-29T08:08:06;0.75;;;0.60;;
70008;SDS011;59542;37.950;-122.338;2022-07-29T08:10:33;1.00;;;0.55;;
70008;SDS011;59542;37.950;-122.338;2022-07-29T08:13:18;1.35;;;0.50;;
70008;SDS011;59542;37.950;-122.338;2022-07-29T08:15:46;1.77;;;0.52;;
70008;SDS011;59542;37.950;-122.338;2022-07-29T08:18:12;1.20;;;0.47;;
70008;SDS011;59542;37.950;-122.338;2022-07-29T08:20:39;0.85;;;0.57;;
70008;SDS011;59542;37.950;-122.338;2022-07-29T08:23:06;2.47;;;0.70;;
70008;SDS011;59542;37.950;-122.338;2022-07-29T08:25:36;1.30;;;0.60;;
70008;SDS011;59542;37.950;-122.338;2022-07-29T08:28:06;1.15;;;0.45;;
70008;SDS011;59542;37.950;-122.338;2022-07-29T08:30:33;2.15;;;0.50;;
70008;SDS011;59542;37.950;-122.338;2022-07-29T08:32:59;3.88;;;0.70;;
70008;SDS011;59542;37.950;-122.338;2022-07-29T08:35:26;3.10;;;0.68;;
70008;SDS011;59542;37.950;-122.338;2022-07-29T08:37:53;1.50;;;0.68;;
70008;SDS011;59542;37.950;-122.338;2022-07-29T08:40:20;3.45;;;0.70;;
70008;SDS011;59542;37.950;-122.338;2022-07-29T08:42:48;2.25;;;0.77;;
70008;SDS011;59542;37.950;-122.338;2022-07-29T08:45:15;0.77;;;0.45;;
70008;SDS011;59542;37.950;-122.338;2022-07-29T08:47:42;1.83;;;0.52;;
70008;SDS011;59542;37.950;-122.338;2022-07-29T08:50:11;1.63;;;0.55;;
70008;SDS011;59542;37.950;-122.338;2022-07-29T08:52:39;2.78;;;0.50;;
70008;SDS011;59542;37.950;-122.338;2022-07-29T08:55:07;0.88;;;0.50;;
70008;SDS011;59542;37.950;-122.338;2022-07-29T08:57:35;1.63;;;0.60;;
70008;SDS011;59542;37.950;-122.338;2022-07-29T09:00:04;2.35;;;0.68;;
70008;SDS011;59542;37.950;-122.338;2022-07-29T09:02:34;1.58;;;0.80;;
70008;SDS011;59542;37.950;-122.338;2022-07-29T09:05:04;1.60;;;0.57;;
70008;SDS011;59542;37.950;-122.338;2022-07-29T09:07:31;2.00;;;0.60;;
70008;SDS011;59542;37.950;-122.338;2022-07-29T09:09:58;5.38;;;0.73;;
70008;SDS011;59542;37.950;-122.338;2022-07-29T09:12:25;0.93;;;0.70;;
70008;SDS011;59542;37.950;-122.338;2022-07-29T09:14:52;2.70;;;0.60;;
70008;SDS011;59542;37.950;-122.338;2022-07-29T09:17:20;3.78;;;0.50;;
70008;SDS011;59542;37.950;-122.338;2022-07-29T09:20:09;1.55;;;0.40;;
70008;SDS011;59542;37.950;-122.338;2022-07-29T09:22:37;1.13;;;0.55;;
70008;SDS011;59542;37.950;-122.338;2022-07-29T09:25:03;2.88;;;0.63;;
70008;SDS011;59542;37.950;-122.338;2022-07-29T09:27:30;2.08;;;0.32;;
70008;SDS011;59542;37.950;-122.338;2022-07-29T09:29:57;1.45;;;0.40;;
70008;SDS011;59542;37.950;-122.338;2022-07-29T09:32:26;1.60;;;0.32;;
70008;SDS011;59542;37.950;-122.338;2022-07-29T09:37:48;0.93;;;0.40;;
70008;SDS011;59542;37.950;-122.338;2022-07-29T09:40:16;0.93;;;0.40;;
70008;SDS011;59542;37.950;-122.338;2022-07-29T09:42:44;2.47;;;0.55;;
70008;SDS011;59542;37.950;-122.338;2022-07-29T09:45:11;1.67;;;0.50;;
70008;SDS011;59542;37.950;-122.338;2022-07-29T09:47:41;0.93;;;0.40;;
70008;SDS011;59542;37.950;-122.338;2022-07-29T09:50:10;0.93;;;0.30;;
70008;SDS011;59542;37.950;-122.338;2022-07-29T09:52:47;1.27;;;0.40;;
70008;SDS011;59542;37.950;-122.338;2022-07-29T09:55:16;1.58;;;0.30;;
70008;SDS011;59542;37.950;-122.338;2022-07-29T09:57:43;1.40;;;0.32;;
70008;SDS011;59542;37.950;-122.338;2022-07-29T10:00:11;3.50;;;0.50;;
70008;SDS011;59542;37.950;-122.338;2022-07-29T10:02:45;1.08;;;0.47;;
70008;SDS011;59542;37.950;-122.338;2022-07-29T10:05:19;1.30;;;0.30;;
70008;SDS011;59542;37.950;-122.338;2022-07-29T10:07:51;3.00;;;0.35;;
70008;SDS011;59542;37.950;-122.338;2022-07-29T10:10:22;0.63;;;0.30;;
70008;SDS011;59542;37.950;-122.338;2022-07-29T10:13:02;0.65;;;0.30;;
70008;SDS011;59542;37.950;-122.338;2022-07-29T10:15:31;2.03;;;0.52;;
70008;SDS011;59542;37.950;-122.338;2022-07-29T10:18:02;0.47;;;0.40;;
70008;SDS011;59542;37.950;-122.338;2022-07-29T10:20:29;0.77;;;0.57;;
70008;SDS011;59542;37.950;-122.338;2022-07-29T10:22:55;0.40;;;0.40;;
70008;SDS011;59542;37.950;-122.338;2022-07-29T10:25:22;0.50;;;0.38;;
70008;SDS011;59542;37.950;-122.338;2022-07-29T10:27:50;0.10;;;0.10;;
70008;SDS011;59542;37.950;-122.338;2022-07-29T10:30:17;0.50;;;0.30;;
70008;SDS011;59542;37.950;-122.338;2022-07-29T10:43:44;1.23;;;0.50;;
70008;SDS011;59542;37.950;-122.338;2022-07-29T10:46:12;0.47;;;0.40;;
70008;SDS011;59542;37.950;-122.338;2022-07-29T10:54:42;3.50;;;0.50;;
70008;SDS011;59542;37.950;-122.338;2022-07-29T10:57:23;3.10;;;0.40;;
70008;SDS011;59542;37.950;-122.338;2022-07-29T11:05:00;2.60;;;0.40;;
70008;SDS011;59542;37.950;-122.338;2022-07-29T11:07:34;0.57;;;0.45;;
70008;SDS011;59542;37.950;-122.338;2022-07-29T11:15:10;0.93;;;0.50;;
70008;SDS011;59542;37.950;-122.338;2022-07-29T11:23:22;0.40;;;0.40;;
70008;SDS011;59542;37.950;-122.338;2022-07-29T11:26:14;0.60;;;0.40;;
70008;SDS011;59542;37.950;-122.338;2022-07-29T11:47:49;1.33;;;0.40;;
70008;SDS011;59542;37.950;-122.338;2022-07-29T11:50:28;0.38;;;0.30;;
70008;SDS011;59542;37.950;-122.338;2022-07-29T11:52:56;0.22;;;0.22;;
70008;SDS011;59542;37.950;-122.338;2022-07-29T11:55:23;0.40;;;0.38;;
70008;SDS011;59542;37.950;-122.338;2022-07-29T11:57:54;0.52;;;0.38;;
70008;SDS011;59542;37.950;-122.338;2022-07-29T12:00:25;0.50;;;0.28;;
70008;SDS011;59542;37.950;-122.338;2022-07-29T12:02:53;0.70;;;0.50;;
70008;SDS011;59542;37.950;-122.338;2022-07-29T12:05:20;0.82;;;0.20;;
70008;SDS011;59542;37.950;-122.338;2022-07-29T12:07:55;0.43;;;0.20;;
70008;SDS011;59542;37.950;-122.338;2022-07-29T12:10:31;1.65;;;0.47;;
70008;SDS011;59542;37.950;-122.338;2022-07-29T12:12:57;1.90;;;0.50;;
70008;SDS011;59542;37.950;-122.338;2022-07-29T12:15:23;1.98;;;0.63;;
70008;SDS011;59542;37.950;-122.338;2022-07-29T12:17:51;1.83;;;0.50;;
70008;SDS011;59542;37.950;-122.338;2022-07-29T12:20:22;0.45;;;0.30;;
70008;SDS011;59542;37.950;-122.338;2022-07-29T12:22:50;3.40;;;0.43;;
70008;SDS011;59542;37.950;-122.338;2022-07-29T12:25:19;1.58;;;0.63;;
70008;SDS011;59542;37.950;-122.338;2022-07-29T12:27:46;1.48;;;0.60;;
70008;SDS011;59542;37.950;-122.338;2022-07-29T12:30:22;1.52;;;0.50;;
70008;SDS011;59542;37.950;-122.338;2022-07-29T12:32:59;0.57;;;0.30;;
70008;SDS011;59542;37.950;-122.338;2022-07-29T12:35:25;0.95;;;0.60;;
70008;SDS011;59542;37.950;-122.338;2022-07-29T12:37:51;2.20;;;0.60;;
70008;SDS011;59542;37.950;-122.338;2022-07-29T12:40:18;2.60;;;0.57;;
70008;SDS011;59542;37.950;-122.338;2022-07-29T12:45:35;0.98;;;0.38;;
70008;SDS011;59542;37.950;-122.338;2022-07-29T12:48:05;2.40;;;0.77;;
70008;SDS011;59542;37.950;-122.338;2022-07-29T12:50:36;0.50;;;0.40;;
70008;SDS011;59542;37.950;-122.338;2022-07-29T12:53:17;2.90;;;0.60;;
70008;SDS011;59542;37.950;-122.338;2022-07-29T12:55:45;1.27;;;0.70;;
70008;SDS011;59542;37.950;-122.338;2022-07-29T13:04:07;0.88;;;0.50;;
70008;SDS011;59542;37.950;-122.338;2022-07-29T13:06:28;1.08;;;0.50;;
70008;SDS011;59542;37.950;-122.338;2022-07-29T13:08:58;2.10;;;0.98;;
70008;SDS011;59542;37.950;-122.338;2022-07-29T13:11:28;1.63;;;0.60;;
70008;SDS011;59542;37.950;-122.338;2022-07-29T13:13:55;1.20;;;0.57;;
70008;SDS011;59542;37.950;-122.338;2022-07-29T13:16:22;1.05;;;0.50;;
70008;SDS011;59542;37.950;-122.338;2022-07-29T13:18:48;1.70;;;0.43;;
70008;SDS011;59542;37.950;-122.338;2022-07-29T13:21:28;1.63;;;0.60;;
70008;SDS011;59542;37.950;-122.338;2022-07-29T13:23:54;3.85;;;0.68;;
70008;SDS011;59542;37.950;-122.338;2022-07-29T13:26:20;0.60;;;0.50;;
70008;SDS011;59542;37.950;-122.338;2022-07-29T13:28:46;1.55;;;0.70;;
70008;SDS011;59542;37.950;-122.338;2022-07-29T13:31:12;1.05;;;0.60;;
70008;SDS011;59542;37.950;-122.338;2022-07-29T13:33:39;0.93;;;0.47;;
70008;SDS011;59542;37.950;-122.338;2022-07-29T13:36:05;1.42;;;0.52;;
70008;SDS011;59542;37.950;-122.338;2022-07-29T13:38:32;0.52;;;0.30;;
70008;SDS011;59542;37.950;-122.338;2022-07-29T13:40:59;1.65;;;0.63;;
70008;SDS011;59542;37.950;-122.338;2022-07-29T13:43:26;0.65;;;0.50;;
70008;SDS011;59542;37.950;-122.338;2022-07-29T13:45:52;1.42;;;0.70;;
70008;SDS011;59542;37.950;-122.338;2022-07-29T13:48:18;1.20;;;0.50;;
70008;SDS011;59542;37.950;-122.338;2022-07-29T13:50:44;0.95;;;0.55;;
70008;SDS011;59542;37.950;-122.338;2022-07-29T13:53:12;1.13;;;0.60;;
70008;SDS011;59542;37.950;-122.338;2022-07-29T13:55:38;1.45;;;0.55;;
70008;SDS011;59542;37.950;-122.338;2022-07-29T13:58:04;1.20;;;0.70;;
70008;SDS011;59542;37.950;-122.338;2022-07-29T14:00:30;1.20;;;0.40;;
70008;SDS011;59542;37.950;-122.338;2022-07-29T14:02:57;1.58;;;0.75;;
70008;SDS011;59542;37.950;-122.338;2022-07-29T14:05:23;3.13;;;0.60;;
70008;SDS011;59542;37.950;-122.338;2022-07-29T14:07:49;0.70;;;0.40;;
70008;SDS011;59542;37.950;-122.338;2022-07-29T14:10:15;2.75;;;0.50;;
70008;SDS011;59542;37.950;-122.338;2022-07-29T14:12:42;0.85;;;0.40;;
70008;SDS011;59542;37.950;-122.338;2022-07-29T14:15:08;3.88;;;0.57;;
70008;SDS011;59542;37.950;-122.338;2022-07-29T14:17:34;0.68;;;0.45;;
70008;SDS011;59542;37.950;-122.338;2022-07-29T14:20:00;1.10;;;0.40;;
70008;SDS011;59542;37.950;-122.338;2022-07-29T14:22:27;3.38;;;0.80;;
70008;SDS011;59542;37.950;-122.338;2022-07-29T14:24:53;1.75;;;0.40;;
70008;SDS011;59542;37.950;-122.338;2022-07-29T14:27:19;0.50;;;0.20;;
70008;SDS011;59542;37.950;-122.338;2022-07-29T14:29:47;0.93;;;0.30;;
70008;SDS011;59542;37.950;-122.338;2022-07-29T14:32:13;1.67;;;0.30;;
70008;SDS011;59542;37.950;-122.338;2022-07-29T14:34:40;0.73;;;0.30;;
70008;SDS011;59542;37.950;-122.338;2022-07-29T14:37:06;0.38;;;0.30;;
70008;SDS011;59542;37.950;-122.338;2022-07-29T14:39:33;0.70;;;0.40;;
70008;SDS011;59542;37.950;-122.338;2022-07-29T14:42:01;0.93;;;0.40;;
70008;SDS011;59542;37.950;-122.338;2022-07-29T14:44:27;1.85;;;0.30;;
70008;SDS011;59542;37.950;-122.338;2022-07-29T14:46:57;0.52;;;0.30;;
70008;SDS011;59542;37.950;-122.338;2022-07-29T14:49:26;0.80;;;0.50;;
70008;SDS011;59542;37.950;-122.338;2022-07-29T14:51:52;1.00;;;0.30;;
70008;SDS011;59542;37.950;-122.338;2022-07-29T14:54:19;0.10;;;0.10;;
70008;SDS011;59542;37.950;-122.338;2022-07-29T14:56:45;0.50;;;0.30;;
70008;SDS011;59542;37.950;-122.338;2022-07-29T14:59:11;1.35;;;0.32;;
70008;SDS011;59542;37.950;-122.338;2022-07-29T15:01:38;0.93;;;0.20;;
70008;SDS011;59542;37.950;-122.338;2022-07-29T15:04:04;0.95;;;0.25;;
70008;SDS011;59542;37.950;-122.338;2022-07-29T15:06:30;0.30;;;0.20;;
70008;SDS011;59542;37.950;-122.338;2022-07-29T15:08:56;0.73;;;0.17;;
70008;SDS011;59542;37.950;-122.338;2022-07-29T15:11:22;0.80;;;0.13;;
70008;SDS011;59542;37.950;-122.338;2022-07-29T15:13:49;0.28;;;0.20;;
70008;SDS011;59542;37.950;-122.338;2022-07-29T15:16:15;0.47;;;0.28;;
70008;SDS011;59542;37.950;-122.338;2022-07-29T15:18:41;1.45;;;0.35;;
70008;SDS011;59542;37.950;-122.338;2022-07-29T15:21:07;0.28;;;0.10;;
70008;SDS011;59542;37.950;-122.338;2022-07-29T15:23:34;0.10;;;0.10;;
70008;SDS011;59542;37.950;-122.338;2022-07-29T15:26:01;1.15;;;0.15;;
70008;SDS011;59542;37.950;-122.338;2022-07-29T15:28:28;0.30;;;0.30;;
70008;SDS011;59542;37.950;-122.338;2022-07-29T15:30:55;0.80;;;0.20;;